Portada
METAR-TAF:

METAR-TAF

Aeroports :

Fairbanks, Alaska, Estats Units d'Amèrica

latitud: 64-48-14N, longitud: 147-52-34W, altitud: 132 m

Observació

L'informe es va fer fa 38 minuts, a les 19:53 UTC
Vent calma
Temperatura -10°C
Humitat 85%
Pressió 1002 hPa
Visibilitat: 16.1 km
Cel ennuvolat a una alçada de 16000 ft

METAR: PAFA 181953Z 00000KT 10SM BKN160 M10/M12 A2959 RMK AO2 SLP031 T11001117

Hora: 11:31 (20:31 UTC)

Pronòstic

L'informe es va fer fa 2 hores i 50 minuts, a les 17:41 UTC
Pronòstic vàlid del 18 a les 18 UTC al 19 a les 24 UTC
Vent 4 kt del Nord-Est
Visibilitat: 10 km
Cel ennuvolat a una alçada de 10000 ft
A partir de les 19 a les 0000 UTC
Vent 8 kt del Nord-Est
Visibilitat: 10 km
Cel ennuvolat a una alçada de 5000 ft
xàfecs en les proximitats
Probabilitat 30%
l' 19 a les 04 UTC al 19 a les 10 UTC
Cel ennuvolat a una alçada de 4000 ft
(lleu) gebradora, pluja, neu

TAF: PAFA 181741Z 1818/1924 04004KT P6SM BKN100 FM190000 05008KT P6SM VCSH BKN050 PROB30 1904/1910 -FZRASN BKN040

Observacions i pronòstics meteorològics de més de 4000 aeroports (METAR i TAF).

Les estacions disponibles són els punts grocs i vermells al mapa.

Posi el ratolí al punt desitjat per veure el nom de l'estació.

Feu clic per veure les observacions i els pronòstics meteorològics.

Per canviar el mapa: feu clic els botons verds amb una creu de color negre per apropar; al botó verd amb un guió per allunyar la imatge; o en les fletxes verdes per a mapes adjacents.


METAR-TAF: